createdAt,value
2018-08-30T00:00:02.607Z,16.50
2018-08-30T00:02:31.558Z,16.50
2018-08-30T00:04:59.958Z,16.50
2018-08-30T00:07:28.331Z,16.40
2018-08-30T00:09:56.774Z,16.40
2018-08-30T00:12:25.843Z,16.50
2018-08-30T00:14:54.762Z,16.40
2018-08-30T00:17:23.141Z,16.40
2018-08-30T00:19:51.466Z,16.40
2018-08-30T00:22:19.852Z,16.40
2018-08-30T00:24:48.214Z,16.40
2018-08-30T00:27:16.654Z,16.30
2018-08-30T00:29:45.030Z,16.40
2018-08-30T00:32:13.426Z,16.30
2018-08-30T00:34:42.541Z,16.30
2018-08-30T00:37:11.186Z,16.30
2018-08-30T00:39:39.572Z,16.20
2018-08-30T00:42:07.906Z,16.20
2018-08-30T00:44:36.248Z,16.20
2018-08-30T00:47:04.754Z,16.20
2018-08-30T00:49:33.097Z,16.10
2018-08-30T00:52:01.468Z,16.10
2018-08-30T00:54:29.792Z,16.10
2018-08-30T00:56:58.146Z,16.10
2018-08-30T00:59:26.569Z,16.10
2018-08-30T01:01:54.986Z,16.10
2018-08-30T01:04:23.457Z,16.10
2018-08-30T01:06:51.799Z,16.10
2018-08-30T01:09:20.122Z,16.10
2018-08-30T01:11:48.471Z,16.10
2018-08-30T01:14:16.822Z,16.00
2018-08-30T01:16:45.728Z,16.00
2018-08-30T01:19:14.166Z,16.00
2018-08-30T01:21:42.525Z,16.00
2018-08-30T01:24:10.881Z,16.00
2018-08-30T01:26:39.239Z,15.90
2018-08-30T01:29:07.592Z,16.00
2018-08-30T01:31:35.987Z,16.00
2018-08-30T01:34:04.355Z,15.90
2018-08-30T01:36:33.444Z,15.80
2018-08-30T01:39:01.869Z,15.80
2018-08-30T01:41:30.371Z,15.80
2018-08-30T01:43:58.725Z,15.90
2018-08-30T01:46:27.755Z,15.90
2018-08-30T01:48:56.126Z,15.90
2018-08-30T01:51:24.447Z,15.90
2018-08-30T01:53:52.876Z,15.90
2018-08-30T01:56:21.205Z,15.90
2018-08-30T01:58:49.574Z,15.90
2018-08-30T02:01:17.963Z,15.90
2018-08-30T02:03:46.460Z,15.90
2018-08-30T02:06:14.830Z,15.90
2018-08-30T02:08:43.157Z,15.90
2018-08-30T02:11:11.546Z,16.00
2018-08-30T02:13:39.939Z,15.90
2018-08-30T02:16:08.524Z,16.00
2018-08-30T02:18:36.939Z,15.90
2018-08-30T02:21:05.311Z,16.00
2018-08-30T02:23:33.701Z,16.00
2018-08-30T02:26:02.063Z,15.90
2018-08-30T02:28:30.404Z,15.90
2018-08-30T02:30:58.891Z,15.90
2018-08-30T02:33:27.235Z,15.90
2018-08-30T02:35:55.575Z,15.90
2018-08-30T02:38:23.976Z,16.00
2018-08-30T02:40:52.323Z,15.90
2018-08-30T02:43:20.679Z,15.90
2018-08-30T02:45:49.019Z,15.90
2018-08-30T02:48:17.703Z,15.90
2018-08-30T02:50:46.127Z,15.90
2018-08-30T02:53:14.485Z,15.90
2018-08-30T02:55:42.959Z,15.90
2018-08-30T02:58:11.309Z,15.90
2018-08-30T03:00:39.671Z,15.90
2018-08-30T03:03:08.175Z,15.90
2018-08-30T03:05:36.617Z,15.80
2018-08-30T03:08:04.969Z,15.80
2018-08-30T03:10:33.293Z,15.80
2018-08-30T03:13:01.653Z,15.80
2018-08-30T03:15:30.025Z,15.80
2018-08-30T03:17:58.452Z,15.80
2018-08-30T03:20:26.855Z,15.80
2018-08-30T03:22:55.271Z,15.80
2018-08-30T03:25:23.628Z,15.80
2018-08-30T03:27:52.680Z,15.80
2018-08-30T03:30:21.044Z,15.80
2018-08-30T03:32:49.796Z,15.80
2018-08-30T03:35:18.297Z,15.80
2018-08-30T03:37:46.731Z,15.80
2018-08-30T03:40:15.079Z,15.80
2018-08-30T03:42:44.156Z,15.80
2018-08-30T03:45:12.501Z,15.80
2018-08-30T03:47:40.896Z,15.70
2018-08-30T03:50:09.896Z,15.70
2018-08-30T03:52:38.224Z,15.70
2018-08-30T03:55:07.075Z,15.80
2018-08-30T03:57:35.369Z,15.80
2018-08-30T04:00:03.784Z,15.80
2018-08-30T04:02:32.124Z,15.80
2018-08-30T04:05:00.478Z,15.80
2018-08-30T04:07:28.818Z,15.80
2018-08-30T04:09:57.176Z,15.80
2018-08-30T04:12:25.524Z,15.80
2018-08-30T04:14:53.928Z,15.80
2018-08-30T04:17:22.309Z,15.80
2018-08-30T04:19:50.670Z,15.70
2018-08-30T04:22:18.982Z,15.80
2018-08-30T04:24:47.328Z,15.80
2018-08-30T04:27:15.896Z,15.70
2018-08-30T04:29:44.912Z,15.80
2018-08-30T04:32:13.273Z,15.70
2018-08-30T04:34:41.650Z,15.70
2018-08-30T04:37:10.062Z,15.80
2018-08-30T04:39:38.396Z,15.80
2018-08-30T04:42:06.757Z,15.80
2018-08-30T04:44:35.105Z,15.80
2018-08-30T04:47:03.504Z,15.90
2018-08-30T04:49:31.866Z,15.90
2018-08-30T04:52:00.280Z,15.80
2018-08-30T04:54:28.592Z,15.80
2018-08-30T04:56:56.938Z,15.80
2018-08-30T04:59:25.338Z,15.80
2018-08-30T05:01:53.736Z,15.80
2018-08-30T05:04:22.856Z,15.80
2018-08-30T05:06:52.818Z,15.80
2018-08-30T05:09:21.156Z,15.70
2018-08-30T05:11:49.546Z,15.70
2018-08-30T05:14:18.001Z,15.70
2018-08-30T05:16:46.319Z,15.70
2018-08-30T05:19:14.680Z,15.70
2018-08-30T05:21:43.006Z,15.70
2018-08-30T05:24:11.372Z,15.70
2018-08-30T05:26:39.737Z,15.80
2018-08-30T05:29:08.224Z,15.80
2018-08-30T05:31:36.582Z,15.80
2018-08-30T05:34:04.939Z,15.70
2018-08-30T05:36:33.323Z,15.70
2018-08-30T05:39:01.683Z,15.80
2018-08-30T05:41:30.019Z,15.80
2018-08-30T05:43:58.373Z,15.90
2018-08-30T05:46:26.820Z,15.90
2018-08-30T05:48:55.211Z,15.90
2018-08-30T05:51:23.582Z,15.90
2018-08-30T05:53:51.912Z,15.90
2018-08-30T05:56:20.277Z,15.90
2018-08-30T05:58:48.734Z,15.90
2018-08-30T06:01:17.136Z,16.00
2018-08-30T06:03:45.940Z,15.90
2018-08-30T06:06:14.280Z,15.90
2018-08-30T06:08:42.646Z,15.90
2018-08-30T06:11:11.004Z,16.00
2018-08-30T06:13:39.357Z,16.00
2018-08-30T06:16:07.808Z,16.00
2018-08-30T06:18:36.164Z,16.00
2018-08-30T06:21:04.547Z,16.00
2018-08-30T06:23:32.892Z,16.00
2018-08-30T06:26:01.232Z,16.00
2018-08-30T06:28:29.573Z,16.10
2018-08-30T06:30:57.966Z,16.10
2018-08-30T06:33:26.340Z,16.10
2018-08-30T06:35:54.853Z,16.10
2018-08-30T06:38:23.782Z,16.10
2018-08-30T06:40:52.167Z,16.10
2018-08-30T06:43:20.521Z,16.10
2018-08-30T06:45:48.906Z,16.00
2018-08-30T06:48:17.287Z,16.10
2018-08-30T06:50:45.894Z,16.20
2018-08-30T06:53:14.272Z,16.20
2018-08-30T06:55:42.724Z,16.40
2018-08-30T06:58:11.114Z,16.40
2018-08-30T07:00:39.474Z,16.50
2018-08-30T07:03:07.952Z,16.50
2018-08-30T07:05:36.333Z,16.60
2018-08-30T07:08:05.301Z,16.60
2018-08-30T07:10:34.404Z,16.60
2018-08-30T07:13:02.771Z,16.70
2018-08-30T07:15:31.840Z,16.70
2018-08-30T07:18:00.220Z,16.80
2018-08-30T07:20:28.626Z,16.80
2018-08-30T07:22:56.990Z,16.70
2018-08-30T07:25:25.311Z,16.70
2018-08-30T07:27:53.705Z,16.80
2018-08-30T07:30:22.092Z,16.80
2018-08-30T07:32:50.551Z,16.90
2018-08-30T07:35:18.940Z,16.90
2018-08-30T07:37:47.324Z,17.00
2018-08-30T07:40:15.700Z,17.00
2018-08-30T07:42:44.322Z,17.10
2018-08-30T07:45:12.675Z,17.00
2018-08-30T07:47:41.032Z,17.10
2018-08-30T07:50:09.385Z,17.20
2018-08-30T07:52:37.861Z,17.30
2018-08-30T07:55:06.319Z,17.40
2018-08-30T07:57:34.789Z,17.40
2018-08-30T08:00:03.129Z,17.50
2018-08-30T08:02:31.513Z,17.50
2018-08-30T08:04:59.883Z,17.60
2018-08-30T08:07:28.425Z,17.60
2018-08-30T08:09:57.914Z,17.60
2018-08-30T08:12:26.283Z,17.70
2018-08-30T08:14:54.639Z,17.80
2018-08-30T08:17:23.129Z,17.80
2018-08-30T08:19:51.484Z,17.70
2018-08-30T08:22:19.866Z,17.70
2018-08-30T08:24:48.234Z,17.80
2018-08-30T08:27:16.617Z,17.80
2018-08-30T08:29:45.011Z,17.80
2018-08-30T08:32:13.425Z,17.70
2018-08-30T08:34:41.777Z,17.50
2018-08-30T08:37:10.393Z,17.50
2018-08-30T08:39:38.905Z,17.60
2018-08-30T08:42:07.375Z,17.70
2018-08-30T08:44:35.689Z,17.80
2018-08-30T08:47:04.118Z,17.90
2018-08-30T08:49:32.497Z,18.00
2018-08-30T08:52:00.976Z,18.10
2018-08-30T08:54:29.357Z,18.10
2018-08-30T08:56:58.469Z,18.30
2018-08-30T08:59:26.956Z,18.20
2018-08-30T09:01:55.315Z,18.20
2018-08-30T09:04:23.657Z,18.30
2018-08-30T09:06:52.075Z,18.30
2018-08-30T09:09:20.385Z,18.30
2018-08-30T09:11:48.735Z,18.30
2018-08-30T09:14:17.183Z,18.40
2018-08-30T09:16:45.500Z,18.50
2018-08-30T09:19:13.916Z,18.60
2018-08-30T09:21:42.251Z,18.50
2018-08-30T09:24:10.663Z,18.60
2018-08-30T09:26:39.002Z,18.70
2018-08-30T09:29:07.362Z,18.80
2018-08-30T09:31:35.779Z,18.90
2018-08-30T09:34:04.143Z,19.10
2018-08-30T09:36:32.567Z,19.30
2018-08-30T09:39:00.941Z,19.20
2018-08-30T09:41:29.309Z,19.30
2018-08-30T09:43:57.681Z,19.30
2018-08-30T09:46:26.024Z,19.20
2018-08-30T09:48:54.389Z,19.30
2018-08-30T09:51:22.734Z,19.30
2018-08-30T09:53:51.082Z,19.20
2018-08-30T09:56:19.642Z,19.30
2018-08-30T09:58:47.984Z,19.20
2018-08-30T10:01:21.598Z,19.20
2018-08-30T10:03:50.012Z,19.10
2018-08-30T10:06:18.406Z,19.00
2018-08-30T10:08:46.756Z,18.80
2018-08-30T10:11:15.201Z,18.50
2018-08-30T10:13:43.598Z,18.60
2018-08-30T10:16:13.260Z,18.50
2018-08-30T10:18:41.613Z,18.40
2018-08-30T10:21:09.976Z,18.40
2018-08-30T10:23:38.471Z,18.40
2018-08-30T10:26:07.112Z,18.30
2018-08-30T10:28:35.458Z,18.20
2018-08-30T10:31:03.958Z,18.30
2018-08-30T10:33:32.344Z,18.10
2018-08-30T10:36:00.724Z,18.20
2018-08-30T10:38:29.170Z,18.30
2018-08-30T10:40:57.519Z,18.40
2018-08-30T10:43:25.871Z,18.30
2018-08-30T10:45:54.992Z,18.10
2018-08-30T10:48:23.373Z,18.30
2018-08-30T10:50:51.757Z,18.50
2018-08-30T10:53:20.121Z,18.70
2018-08-30T10:55:48.535Z,18.90
2018-08-30T10:58:16.899Z,19.10
2018-08-30T11:00:45.952Z,19.10
2018-08-30T11:03:14.762Z,18.90
2018-08-30T11:05:43.175Z,19.20
2018-08-30T11:08:11.592Z,19.40
2018-08-30T11:10:40.070Z,19.10
2018-08-30T11:13:08.600Z,19.10
2018-08-30T11:15:36.928Z,19.30
2018-08-30T11:18:05.301Z,19.50
2018-08-30T11:20:33.695Z,19.50
2018-08-30T11:23:02.039Z,19.50
2018-08-30T11:25:30.433Z,19.60
2018-08-30T11:27:58.819Z,19.80
2018-08-30T11:30:27.307Z,19.90
2018-08-30T11:32:55.910Z,19.90
2018-08-30T11:35:24.266Z,19.90
2018-08-30T11:37:52.716Z,19.70
2018-08-30T11:40:21.083Z,19.90
2018-08-30T11:42:49.600Z,20.00
2018-08-30T11:45:18.002Z,20.00
2018-08-30T11:47:46.410Z,20.00
2018-08-30T11:50:14.990Z,20.00
2018-08-30T11:52:43.924Z,19.90
2018-08-30T11:55:12.254Z,19.90
2018-08-30T11:57:40.589Z,19.80
2018-08-30T12:00:09.041Z,19.70
2018-08-30T12:02:37.476Z,19.60
2018-08-30T12:05:07.093Z,19.50
2018-08-30T12:07:35.692Z,19.60
2018-08-30T12:10:04.829Z,19.50
2018-08-30T12:12:33.225Z,19.20
2018-08-30T12:15:01.619Z,19.10
2018-08-30T12:17:30.625Z,19.10
2018-08-30T12:19:59.119Z,19.00
2018-08-30T12:22:27.584Z,19.00
2018-08-30T12:24:55.966Z,19.00
2018-08-30T12:27:24.371Z,19.00
2018-08-30T12:29:52.732Z,18.90
2018-08-30T12:32:21.216Z,18.80
2018-08-30T12:34:49.589Z,18.70
2018-08-30T12:37:18.864Z,18.50
2018-08-30T12:39:47.384Z,18.10
2018-08-30T12:42:15.698Z,18.20
2018-08-30T12:44:44.062Z,18.30
2018-08-30T12:47:12.433Z,18.40
2018-08-30T12:49:41.179Z,18.30
2018-08-30T12:52:09.669Z,18.40
2018-08-30T12:54:38.119Z,18.30
2018-08-30T12:57:06.484Z,18.50
2018-08-30T12:59:38.979Z,18.60
2018-08-30T13:02:07.347Z,18.70
2018-08-30T13:04:35.969Z,18.70
2018-08-30T13:07:04.950Z,18.60
2018-08-30T13:09:33.348Z,18.60
2018-08-30T13:12:01.916Z,18.60
2018-08-30T13:14:30.761Z,18.60
2018-08-30T13:16:59.218Z,18.60
2018-08-30T13:19:28.251Z,18.60
2018-08-30T13:21:56.551Z,18.70
2018-08-30T13:24:24.945Z,18.80
2018-08-30T13:26:53.273Z,18.80
2018-08-30T13:29:21.782Z,18.80
2018-08-30T13:31:50.208Z,18.80
2018-08-30T13:34:18.705Z,18.80
2018-08-30T13:36:47.571Z,18.80
2018-08-30T13:39:16.024Z,18.90
2018-08-30T13:41:44.339Z,19.00
2018-08-30T13:44:12.887Z,19.00
2018-08-30T13:46:41.856Z,18.80
2018-08-30T13:49:11.184Z,18.80
2018-08-30T13:51:39.613Z,18.70
2018-08-30T13:54:08.132Z,18.80
2018-08-30T13:56:36.566Z,18.80
2018-08-30T13:59:05.089Z,18.80
2018-08-30T14:01:33.196Z,18.90
2018-08-30T14:04:01.786Z,18.90
2018-08-30T14:06:30.581Z,19.00
2018-08-30T14:08:59.087Z,19.00
2018-08-30T14:11:27.376Z,19.10
2018-08-30T14:13:55.834Z,19.10
2018-08-30T14:16:23.929Z,19.10
2018-08-30T14:18:52.893Z,19.20
2018-08-30T14:21:21.240Z,19.10
2018-08-30T14:23:49.614Z,19.20
2018-08-30T14:26:18.458Z,19.40
2018-08-30T14:28:46.742Z,19.50
2018-08-30T14:31:15.086Z,19.40
2018-08-30T14:33:43.478Z,19.50
2018-08-30T14:36:11.766Z,19.40
2018-08-30T14:38:40.211Z,19.50
2018-08-30T14:41:08.634Z,19.50
2018-08-30T14:43:36.852Z,19.50
2018-08-30T14:46:05.207Z,19.40
2018-08-30T14:48:33.596Z,19.40
2018-08-30T14:51:01.933Z,19.40
2018-08-30T14:53:30.375Z,19.30
2018-08-30T14:55:58.729Z,19.40
2018-08-30T14:58:27.085Z,19.50
2018-08-30T15:00:55.603Z,19.50
2018-08-30T15:03:24.019Z,19.60
2018-08-30T15:05:52.458Z,19.70
2018-08-30T15:08:20.729Z,19.70
2018-08-30T15:10:49.830Z,19.70
2018-08-30T15:13:18.353Z,19.70
2018-08-30T15:15:47.129Z,19.70
2018-08-30T15:18:16.253Z,19.70
2018-08-30T15:20:44.723Z,19.80
2018-08-30T15:23:13.313Z,19.80
2018-08-30T15:25:41.453Z,19.90
2018-08-30T15:28:09.775Z,20.10
2018-08-30T15:30:38.175Z,20.20
2018-08-30T15:33:06.643Z,20.40
2018-08-30T15:35:34.919Z,20.30
2018-08-30T15:38:03.316Z,20.30
2018-08-30T15:40:31.642Z,20.30
2018-08-30T15:43:00.031Z,20.50
2018-08-30T15:45:28.429Z,20.60
2018-08-30T15:47:56.857Z,20.80
2018-08-30T15:50:25.258Z,20.80
2018-08-30T15:52:53.620Z,21.00
2018-08-30T15:55:22.096Z,21.10
2018-08-30T15:57:50.448Z,21.50
2018-08-30T16:00:18.910Z,21.50
2018-08-30T16:02:47.940Z,21.40
2018-08-30T16:05:16.375Z,21.60
2018-08-30T16:07:44.680Z,21.70
2018-08-30T16:10:14.344Z,21.90
2018-08-30T16:12:42.972Z,21.80
2018-08-30T16:15:11.329Z,21.70
2018-08-30T16:17:39.672Z,21.60
2018-08-30T16:20:08.064Z,21.50
2018-08-30T16:22:48.574Z,21.60
2018-08-30T16:25:17.599Z,21.40
2018-08-30T16:27:45.917Z,21.20
2018-08-30T16:30:14.383Z,21.10
2018-08-30T16:32:43.256Z,20.70
2018-08-30T16:35:12.638Z,20.60
2018-08-30T16:37:40.996Z,20.50
2018-08-30T16:40:09.491Z,20.40
2018-08-30T16:42:37.906Z,20.40
2018-08-30T16:45:06.276Z,20.50
2018-08-30T16:47:34.657Z,20.50
2018-08-30T16:50:03.060Z,20.60
2018-08-30T16:52:31.502Z,20.60
2018-08-30T16:54:59.786Z,20.70
2018-08-30T16:57:28.115Z,20.70
2018-08-30T16:59:56.466Z,20.70
2018-08-30T17:02:24.968Z,20.70
2018-08-30T17:04:53.291Z,20.60
2018-08-30T17:07:21.776Z,20.60
2018-08-30T17:09:50.144Z,20.50
2018-08-30T17:12:18.517Z,20.40
2018-08-30T17:14:46.899Z,20.40
2018-08-30T17:17:16.322Z,20.30
2018-08-30T17:19:44.770Z,20.20
2018-08-30T17:22:13.153Z,20.10
2018-08-30T17:24:41.520Z,20.00
2018-08-30T17:27:10.636Z,20.00
2018-08-30T17:29:38.962Z,19.80
2018-08-30T17:32:07.371Z,19.70
2018-08-30T17:34:36.453Z,19.70
2018-08-30T17:37:04.992Z,19.60
2018-08-30T17:39:33.196Z,19.50
2018-08-30T17:42:01.546Z,19.50
2018-08-30T17:44:30.024Z,19.30
2018-08-30T17:46:58.396Z,19.30
2018-08-30T17:49:26.779Z,19.10
2018-08-30T17:51:55.455Z,19.10
2018-08-30T17:54:23.954Z,19.00
2018-08-30T17:56:52.288Z,18.90
2018-08-30T17:59:20.702Z,18.80
2018-08-30T18:01:49.100Z,18.70
2018-08-30T18:04:17.621Z,18.60
2018-08-30T18:06:46.025Z,18.60
2018-08-30T18:09:14.381Z,18.50
2018-08-30T18:11:42.768Z,18.40
2018-08-30T18:14:11.168Z,18.40
2018-08-30T18:16:39.517Z,18.40
2018-08-30T18:19:07.889Z,18.30
2018-08-30T18:21:36.245Z,18.30
2018-08-30T18:24:04.658Z,18.20
2018-08-30T18:26:33.017Z,18.20
2018-08-30T18:29:01.377Z,18.10
2018-08-30T18:31:29.747Z,18.10
2018-08-30T18:33:58.151Z,18.00
2018-08-30T18:36:26.488Z,17.80
2018-08-30T18:38:54.843Z,17.70
2018-08-30T18:41:23.215Z,17.70
2018-08-30T18:43:51.553Z,17.50
2018-08-30T18:46:19.982Z,17.40
2018-08-30T18:48:48.920Z,17.40
2018-08-30T18:51:17.343Z,17.30
2018-08-30T18:53:45.727Z,17.20
2018-08-30T18:56:14.134Z,17.20
2018-08-30T18:58:42.625Z,17.20
2018-08-30T19:01:11.022Z,17.20
2018-08-30T19:03:39.404Z,17.20
2018-08-30T19:06:07.892Z,17.30
2018-08-30T19:08:36.332Z,17.30
2018-08-30T19:11:05.618Z,17.30
2018-08-30T19:13:34.046Z,17.30
2018-08-30T19:16:07.673Z,17.30
2018-08-30T19:18:41.321Z,17.30
2018-08-30T19:21:09.723Z,17.30
2018-08-30T19:23:38.075Z,17.30
2018-08-30T19:26:06.488Z,17.30
2018-08-30T19:28:35.535Z,17.30
2018-08-30T19:31:03.906Z,17.30
2018-08-30T19:33:33.107Z,17.10
2018-08-30T19:36:06.803Z,16.80
2018-08-30T19:38:35.188Z,16.80
2018-08-30T19:41:09.113Z,16.80
2018-08-30T19:43:37.479Z,16.70
2018-08-30T19:46:05.912Z,16.70
2018-08-30T19:48:34.333Z,16.70
2018-08-30T19:51:03.385Z,16.70
2018-08-30T19:53:32.355Z,16.70
2018-08-30T19:56:00.973Z,16.70
2018-08-30T19:58:29.371Z,16.70
2018-08-30T20:00:57.793Z,16.80
2018-08-30T20:03:26.921Z,16.80
2018-08-30T20:05:55.279Z,16.80
2018-08-30T20:08:23.686Z,16.80
2018-08-30T20:10:52.047Z,16.80
2018-08-30T20:13:20.578Z,16.80
2018-08-30T20:15:49.007Z,16.80
2018-08-30T20:18:17.354Z,16.80
2018-08-30T20:20:45.729Z,16.80
2018-08-30T20:23:14.203Z,16.90
2018-08-30T20:25:42.559Z,16.90
2018-08-30T20:28:11.623Z,16.80
2018-08-30T20:30:39.950Z,16.80
2018-08-30T20:33:08.291Z,16.80
2018-08-30T20:35:36.658Z,16.90
2018-08-30T20:38:05.026Z,16.90
2018-08-30T20:40:33.470Z,16.80
2018-08-30T20:43:01.828Z,16.80
2018-08-30T20:45:30.170Z,16.80
2018-08-30T20:47:58.550Z,16.80
2018-08-30T20:50:26.902Z,16.80
2018-08-30T20:52:55.287Z,16.80
2018-08-30T20:55:23.672Z,16.70
2018-08-30T20:57:52.000Z,16.70
2018-08-30T21:00:21.759Z,16.60
2018-08-30T21:02:50.088Z,16.60
2018-08-30T21:05:18.578Z,16.50
2018-08-30T21:07:46.961Z,16.50
2018-08-30T21:10:15.372Z,16.50
2018-08-30T21:12:43.700Z,16.50
2018-08-30T21:15:12.076Z,16.50
2018-08-30T21:17:40.485Z,16.40
2018-08-30T21:20:08.816Z,16.40
2018-08-30T21:22:37.914Z,16.40
2018-08-30T21:25:06.382Z,16.40
2018-08-30T21:27:38.449Z,16.40
2018-08-30T21:30:07.526Z,16.40
2018-08-30T21:32:35.879Z,16.40
2018-08-30T21:35:04.407Z,16.40
2018-08-30T21:37:32.736Z,16.40
2018-08-30T21:40:01.301Z,16.40
2018-08-30T21:42:29.700Z,16.40
2018-08-30T21:44:58.054Z,16.40
2018-08-30T21:47:26.411Z,16.50
2018-08-30T21:49:54.772Z,16.50
2018-08-30T21:52:23.106Z,16.50
2018-08-30T21:54:51.451Z,16.40
2018-08-30T21:57:20.010Z,16.40
2018-08-30T21:59:48.472Z,16.30
2018-08-30T22:02:16.897Z,16.30
2018-08-30T22:04:45.768Z,16.30
2018-08-30T22:07:14.123Z,16.20
2018-08-30T22:09:42.464Z,16.20
2018-08-30T22:12:10.924Z,16.20
2018-08-30T22:14:39.268Z,16.20
2018-08-30T22:17:07.634Z,16.20
2018-08-30T22:19:35.996Z,16.10
2018-08-30T22:22:04.454Z,16.10
2018-08-30T22:24:32.868Z,16.10
2018-08-30T22:27:01.212Z,16.10
2018-08-30T22:29:29.560Z,16.10
2018-08-30T22:31:57.936Z,16.10
2018-08-30T22:34:26.258Z,16.10
2018-08-30T22:36:54.644Z,16.00
2018-08-30T22:39:23.043Z,16.00
2018-08-30T22:41:51.494Z,16.00
2018-08-30T22:44:19.829Z,16.00
2018-08-30T22:46:48.196Z,15.90
2018-08-30T22:49:16.525Z,16.00
2018-08-30T22:51:44.863Z,15.90
2018-08-30T22:54:13.241Z,15.90
2018-08-30T22:56:41.695Z,15.90
2018-08-30T22:59:10.070Z,15.90
2018-08-30T23:01:38.430Z,15.90
2018-08-30T23:04:06.768Z,15.90
2018-08-30T23:06:35.116Z,15.90
2018-08-30T23:09:04.583Z,15.90
2018-08-30T23:11:32.927Z,15.80
2018-08-30T23:14:01.407Z,15.80
2018-08-30T23:16:29.728Z,15.80
2018-08-30T23:18:58.651Z,15.80
2018-08-30T23:21:27.079Z,15.70
2018-08-30T23:23:55.421Z,15.70
2018-08-30T23:26:23.748Z,15.70
2018-08-30T23:28:52.827Z,15.60
2018-08-30T23:31:21.237Z,15.60
2018-08-30T23:33:49.587Z,15.60
2018-08-30T23:36:17.923Z,15.50
2018-08-30T23:38:46.243Z,15.40
2018-08-30T23:41:14.645Z,15.40
2018-08-30T23:43:42.971Z,15.40
2018-08-30T23:46:11.332Z,15.30
2018-08-30T23:48:39.752Z,15.30
2018-08-30T23:51:08.109Z,15.20
2018-08-30T23:53:37.131Z,15.20
2018-08-30T23:56:05.747Z,15.20
2018-08-30T23:58:45.457Z,15.10
